Maskinonge, Canada
Current Conditions -  °F | °C
As of 3:00 AM on Friday 19 Dec 2014 (Local Time) from CYRQ Reporting Station
Overcast Overcast  
Wind Chill: 14°   Ceiling: 2100
Heat Index: 23°   Visibility: 9mi
Dew Point: 19°   Wind: 8mph
Humidity: 86%   Direction: 320°NW
Pressure: 29.94"   Gusts: NA
Location:  46.22°N, 73.02°W
Report Text: CYRQ 190800Z AUTO 32007KT 290V360 9SM OVC021 M05/M07 A2994 RMK SLP141
Loading
Personal Weather Stations






























Interactive Weather Map New forecast layout! Learn more

10-Day Weather Forecast

Advertisements
Track Severe Weather on mobile